createdAt,value
2023-06-15T00:02:53.389Z,43.00
2023-06-15T00:07:54.805Z,43.07
2023-06-15T00:12:56.722Z,43.25
2023-06-15T00:17:58.628Z,43.26
2023-06-15T00:23:00.299Z,43.20
2023-06-15T00:28:39.136Z,43.52
2023-06-15T00:33:40.997Z,43.75
2023-06-15T00:38:42.398Z,43.79
2023-06-15T00:43:44.129Z,44.22
2023-06-15T00:48:46.067Z,44.39
2023-06-15T00:53:48.213Z,44.14
2023-06-15T00:58:50.460Z,44.49
2023-06-15T01:03:51.970Z,44.69
2023-06-15T01:08:54.561Z,44.22
2023-06-15T01:13:59.218Z,45.17
2023-06-15T01:24:25.339Z,45.45
2023-06-15T01:29:28.413Z,45.24
2023-06-15T01:34:32.412Z,45.39
2023-06-15T01:39:33.883Z,45.20
2023-06-15T01:44:36.345Z,45.52
2023-06-15T01:49:40.158Z,46.01
2023-06-15T01:54:41.625Z,46.01
2023-06-15T01:59:43.407Z,46.14
2023-06-15T02:04:44.848Z,46.19
2023-06-15T02:09:46.478Z,45.68
2023-06-15T02:14:49.126Z,46.18
2023-06-15T02:19:50.593Z,46.00
2023-06-15T02:24:52.206Z,46.04
2023-06-15T02:29:53.590Z,46.01
2023-06-15T02:34:57.312Z,46.48
2023-06-15T02:39:58.794Z,46.35
2023-06-15T02:45:00.725Z,46.67
2023-06-15T02:50:03.241Z,46.13
2023-06-15T02:55:05.085Z,46.60
2023-06-15T03:00:10.081Z,46.34
2023-06-15T03:05:12.433Z,46.84
2023-06-15T03:10:13.889Z,47.40
2023-06-15T03:15:16.139Z,47.56
2023-06-15T03:20:17.969Z,47.61
2023-06-15T03:25:21.410Z,47.14
2023-06-15T03:30:23.030Z,47.24
2023-06-15T03:35:24.650Z,47.85
2023-06-15T03:40:26.313Z,47.93
2023-06-15T03:45:27.685Z,47.96
2023-06-15T03:50:29.110Z,48.34
2023-06-15T03:55:31.259Z,48.53
2023-06-15T04:00:32.612Z,48.71
2023-06-15T04:05:34.126Z,48.71
2023-06-15T04:10:36.382Z,48.88
2023-06-15T04:15:38.068Z,48.65
2023-06-15T04:20:39.586Z,49.30
2023-06-15T04:25:43.788Z,49.18
2023-06-15T04:30:53.978Z,49.31
2023-06-15T04:35:57.456Z,49.35
2023-06-15T04:41:01.825Z,49.56
2023-06-15T04:46:03.478Z,49.55
2023-06-15T04:51:06.332Z,49.82
2023-06-15T04:56:07.812Z,49.33
2023-06-15T05:01:09.269Z,49.79
2023-06-15T05:06:11.128Z,50.07
2023-06-15T05:11:12.766Z,49.28
2023-06-15T05:16:14.222Z,49.91
2023-06-15T05:21:15.950Z,49.66
2023-06-15T05:26:28.992Z,49.24
2023-06-15T05:31:31.994Z,49.23
2023-06-15T05:36:54.582Z,48.99
2023-06-15T05:41:56.570Z,49.28
2023-06-15T05:46:58.235Z,49.04
2023-06-15T05:52:01.266Z,48.54
2023-06-15T05:57:02.938Z,49.52
2023-06-15T06:02:04.996Z,48.53
2023-06-15T06:07:07.698Z,49.19
2023-06-15T06:12:10.244Z,48.53
2023-06-15T06:17:14.694Z,47.97
2023-06-15T06:22:21.587Z,47.89
2023-06-15T06:27:24.507Z,47.38
2023-06-15T06:32:26.830Z,47.31
2023-06-15T06:37:28.552Z,47.27
2023-06-15T06:42:30.564Z,46.50
2023-06-15T06:47:32.566Z,46.29
2023-06-15T06:52:34.041Z,45.78
2023-06-15T06:57:36.935Z,45.41
2023-06-15T07:02:38.488Z,44.84
2023-06-15T07:07:40.343Z,44.28
2023-06-15T07:12:42.186Z,44.34
2023-06-15T07:17:44.029Z,44.06
2023-06-15T07:22:46.945Z,43.50
2023-06-15T07:27:48.961Z,43.15
2023-06-15T07:32:50.584Z,43.72
2023-06-15T07:37:52.494Z,43.55
2023-06-15T07:42:54.702Z,42.93
2023-06-15T07:47:56.166Z,42.69
2023-06-15T07:52:58.200Z,42.69
2023-06-15T07:58:00.617Z,41.87
2023-06-15T08:03:02.281Z,41.42
2023-06-15T08:08:04.391Z,41.43
2023-06-15T08:13:06.159Z,40.97
2023-06-15T08:18:07.850Z,40.73
2023-06-15T08:23:09.399Z,40.42
2023-06-15T08:28:13.548Z,40.52
2023-06-15T08:33:15.009Z,39.48
2023-06-15T08:38:16.710Z,39.11
2023-06-15T08:43:19.553Z,39.61
2023-06-15T08:48:23.027Z,38.99
2023-06-15T08:53:28.245Z,39.22
2023-06-15T08:58:29.713Z,38.83
2023-06-15T09:03:33.088Z,38.40
2023-06-15T09:08:36.455Z,38.07
2023-06-15T09:13:40.070Z,37.45
2023-06-15T09:18:49.746Z,36.46
2023-06-15T09:23:51.529Z,37.20
2023-06-15T09:28:59.032Z,36.85
2023-06-15T09:34:08.603Z,35.10
2023-06-15T09:39:13.012Z,34.20
2023-06-15T09:44:14.705Z,32.91
2023-06-15T09:49:34.156Z,32.00
2023-06-15T09:54:36.277Z,31.74
2023-06-15T09:59:37.780Z,31.29
2023-06-15T10:04:41.686Z,31.06
2023-06-15T10:09:49.145Z,30.36
2023-06-15T10:14:59.885Z,30.80
2023-06-15T10:20:10.178Z,30.12
2023-06-15T10:25:12.418Z,30.92
2023-06-15T10:30:25.173Z,28.89
2023-06-15T10:35:33.113Z,29.62
2023-06-15T10:40:41.204Z,29.32
2023-06-15T10:45:42.543Z,29.06
2023-06-15T10:50:49.515Z,28.78
2023-06-15T10:55:55.925Z,28.37
2023-06-15T11:01:08.778Z,28.05
2023-06-15T11:06:39.818Z,26.75
2023-06-15T11:11:46.409Z,27.25
2023-06-15T11:17:03.323Z,26.21
2023-06-15T11:22:07.764Z,27.32
2023-06-15T11:27:10.945Z,26.80
2023-06-15T11:32:12.695Z,26.84
2023-06-15T11:37:16.511Z,26.44
2023-06-15T11:42:20.197Z,26.33
2023-06-15T11:47:21.907Z,26.21
2023-06-15T11:52:24.627Z,26.26
2023-06-15T11:57:26.386Z,25.95
2023-06-15T12:02:28.070Z,26.66
2023-06-15T12:07:38.448Z,26.17
2023-06-15T12:12:41.677Z,26.11
2023-06-15T12:17:43.439Z,25.47
2023-06-15T12:22:47.896Z,25.48
2023-06-15T12:27:51.380Z,25.83
2023-06-15T12:32:54.682Z,25.12
2023-06-15T12:37:57.628Z,25.61
2023-06-15T12:43:04.826Z,25.49
2023-06-15T12:48:08.511Z,25.84
2023-06-15T12:53:10.572Z,25.45
2023-06-15T12:58:13.533Z,24.04
2023-06-15T13:03:16.569Z,24.73
2023-06-15T13:08:18.616Z,24.37
2023-06-15T13:13:20.083Z,24.38
2023-06-15T13:18:21.796Z,23.49
2023-06-15T13:23:23.658Z,23.88
2023-06-15T13:28:25.186Z,24.44
2023-06-15T13:33:27.428Z,24.90
2023-06-15T13:38:29.094Z,24.27
2023-06-15T13:43:31.424Z,24.78
2023-06-15T13:48:33.293Z,24.41
2023-06-15T13:53:34.893Z,25.19
2023-06-15T13:58:36.758Z,24.73
2023-06-15T14:03:41.163Z,23.34
2023-06-15T14:08:43.564Z,23.95
2023-06-15T14:13:51.655Z,23.05
2023-06-15T14:18:56.933Z,23.16
2023-06-15T14:23:58.757Z,23.44
2023-06-15T14:29:00.321Z,23.66
2023-06-15T14:34:02.245Z,23.31
2023-06-15T14:39:05.770Z,22.51
2023-06-15T14:44:09.067Z,23.12
2023-06-15T14:49:11.661Z,23.23
2023-06-15T14:54:13.021Z,23.07
2023-06-15T14:59:14.948Z,23.79
2023-06-15T15:04:16.357Z,23.39
2023-06-15T15:09:18.456Z,23.80
2023-06-15T15:14:19.851Z,24.45
2023-06-15T15:19:22.758Z,24.13
2023-06-15T15:24:24.658Z,24.76
2023-06-15T15:29:26.982Z,24.58
2023-06-15T15:34:29.090Z,24.67
2023-06-15T15:39:30.712Z,25.42
2023-06-15T15:44:32.096Z,25.41
2023-06-15T15:49:33.585Z,25.30
2023-06-15T15:54:35.125Z,25.32
2023-06-15T15:59:39.007Z,24.78
2023-06-15T16:04:41.016Z,25.03
2023-06-15T16:09:42.682Z,24.96
2023-06-15T16:14:44.374Z,25.45
2023-06-15T16:19:45.890Z,25.58
2023-06-15T16:24:48.849Z,25.77
2023-06-15T16:29:50.501Z,26.01
2023-06-15T16:34:52.437Z,25.96
2023-06-15T16:39:56.437Z,25.77
2023-06-15T16:45:01.149Z,26.07
2023-06-15T16:50:03.777Z,26.33
2023-06-15T16:55:06.094Z,26.49
2023-06-15T17:00:08.276Z,26.73
2023-06-15T17:05:09.966Z,27.02
2023-06-15T17:10:11.746Z,26.80
2023-06-15T17:15:13.497Z,26.88
2023-06-15T17:20:15.324Z,27.31
2023-06-15T17:25:16.694Z,27.38
2023-06-15T17:30:20.125Z,27.31
2023-06-15T17:35:22.723Z,27.47
2023-06-15T17:40:28.208Z,27.39
2023-06-15T17:45:32.802Z,27.10
2023-06-15T17:50:34.399Z,27.24
2023-06-15T17:55:39.209Z,27.87
2023-06-15T18:00:41.167Z,28.04
2023-06-15T18:05:43.210Z,27.94
2023-06-15T18:10:46.322Z,27.75
2023-06-15T18:15:49.287Z,27.83
2023-06-15T18:20:51.295Z,27.96
2023-06-15T18:25:56.340Z,27.97
2023-06-15T18:30:58.282Z,28.01
2023-06-15T18:36:00.736Z,27.69
2023-06-15T18:41:03.426Z,27.49
2023-06-15T18:46:04.843Z,27.93
2023-06-15T18:51:06.606Z,28.53
2023-06-15T18:56:08.007Z,28.65
2023-06-15T19:01:09.691Z,28.69
2023-06-15T19:06:11.216Z,28.75
2023-06-15T19:11:13.288Z,29.20
2023-06-15T19:16:15.074Z,29.42
2023-06-15T19:21:16.603Z,29.33
2023-06-15T19:26:18.424Z,29.43
2023-06-15T19:31:19.899Z,29.35
2023-06-15T19:36:21.388Z,29.67
2023-06-15T19:41:23.354Z,30.07
2023-06-15T19:46:24.901Z,31.23
2023-06-15T19:51:26.755Z,31.88
2023-06-15T19:56:28.240Z,30.86
2023-06-15T20:01:30.027Z,30.85
2023-06-15T20:06:32.040Z,31.60
2023-06-15T20:11:33.533Z,31.10
2023-06-15T20:16:35.623Z,31.29
2023-06-15T20:21:37.351Z,31.75
2023-06-15T20:26:40.215Z,31.69
2023-06-15T20:31:44.200Z,31.51
2023-06-15T20:36:46.858Z,31.46
2023-06-15T20:41:48.229Z,31.21
2023-06-15T20:46:49.721Z,30.98
2023-06-15T20:51:51.221Z,31.74
2023-06-15T20:56:53.552Z,30.92
2023-06-15T21:01:55.214Z,31.74
2023-06-15T21:06:57.114Z,31.25
2023-06-15T21:11:58.561Z,31.82
2023-06-15T21:17:00.032Z,31.71
2023-06-15T21:22:04.190Z,33.02
2023-06-15T21:27:06.574Z,33.78
2023-06-15T21:32:08.400Z,34.08
2023-06-15T21:37:11.049Z,34.94
2023-06-15T21:42:12.609Z,34.68
2023-06-15T21:47:13.984Z,35.04
2023-06-15T21:52:17.360Z,34.88
2023-06-15T21:57:18.900Z,34.82
2023-06-15T22:02:20.317Z,35.27
2023-06-15T22:07:21.691Z,34.86
2023-06-15T22:12:23.081Z,34.41
2023-06-15T22:17:26.868Z,34.31
2023-06-15T22:22:28.461Z,34.12
2023-06-15T22:27:29.964Z,33.07
2023-06-15T22:32:31.555Z,33.42
2023-06-15T22:37:32.982Z,33.46
2023-06-15T22:42:34.604Z,33.36
2023-06-15T22:47:41.810Z,33.28
2023-06-15T22:52:43.454Z,34.44
2023-06-15T22:57:44.822Z,34.09
2023-06-15T23:02:46.742Z,33.87
2023-06-15T23:07:49.781Z,33.46
2023-06-15T23:12:51.723Z,34.02
2023-06-15T23:17:53.305Z,34.00
2023-06-15T23:22:59.207Z,33.87
2023-06-15T23:28:04.089Z,33.76
2023-06-15T23:33:05.919Z,34.09
2023-06-15T23:38:07.347Z,34.77
2023-06-15T23:43:08.799Z,34.91
2023-06-15T23:48:10.983Z,35.04
2023-06-15T23:53:12.987Z,35.65
2023-06-15T23:58:14.701Z,35.52
